Time;durP1;ratioP1;P1;durP2;ratioP2;P2;SDS_P1;SDS_P2;PMS_P1;PMS_P2;Temp;Humidity;BMP_temperature;BMP_pressure;BME280_temperature;BME280_humidity;BME280_pressure;Samples;Min_cycle;Max_cycle;Signal;HPM_P1;HPM_P2
2022/01/06 00:00:37;;;;;;;7.03;2.03;;;;;;;4.90;100.00;101177.06;4970960;28;21433;-74
2022/01/06 00:03:03;;;;;;;6.37;1.40;;;;;;;4.58;100.00;101192.72;4972002;28;20273;-74
2022/01/06 00:05:28;;;;;;;8.63;1.77;;;;;;;4.51;100.00;101195.13;4975175;28;20682;-74
2022/01/06 00:07:54;;;;;;;5.70;1.20;;;;;;;3.61;100.00;101040.19;4969181;28;20329;-74
2022/01/06 00:10:20;;;;;;;3.00;1.20;;;;;;;4.52;100.00;101183.53;4965678;28;20190;-74
2022/01/06 00:13:01;;;;;;;4.30;1.27;;;;;;;4.64;100.00;101210.72;4972444;28;21380;-74
2022/01/06 00:15:34;;;;;;;2.70;1.13;;;;;;;3.85;100.00;101069.69;4970934;28;20493;-74
2022/01/06 00:25:58;;;;;;;8.03;1.67;;;;;;;4.74;100.00;101235.38;4959429;28;20491;-74
2022/01/06 00:28:24;;;;;;;3.87;1.10;;;;;;;4.51;100.00;101214.59;4968011;28;20898;-74
2022/01/06 00:30:49;;;;;;;4.03;1.10;;;;;;;4.16;100.00;101166.72;4955467;28;20869;-74
2022/01/06 00:33:16;;;;;;;3.87;0.93;;;;;;;4.16;100.00;101206.53;4973390;28;20461;-74
2022/01/06 00:35:42;;;;;;;7.80;1.50;;;;;;;4.43;100.00;101256.16;4946319;28;20771;-74
2022/01/06 00:38:08;;;;;;;6.00;1.00;;;;;;;4.36;100.00;101257.72;4969753;28;20451;-74
2022/01/06 00:40:37;;;;;;;7.73;1.30;;;;;;;3.43;100.00;101127.69;4954010;28;20186;-74
2022/01/06 00:43:04;;;;;;;5.70;1.00;;;;;;;3.91;100.00;101221.34;4971900;28;20506;-74
2022/01/06 00:45:31;;;;;;;4.10;0.90;;;;;;;3.60;100.00;101200.34;4968636;28;20477;-74
2022/01/06 00:47:57;;;;;;;3.57;1.57;;;;;;;3.66;100.00;101268.75;4966054;28;20453;-74
2022/01/06 00:50:24;;;;;;;5.93;1.13;;;;;;;4.07;100.00;101271.97;4969015;28;20965;-73
2022/01/06 00:52:49;;;;;;;3.50;1.10;;;;;;;4.29;100.00;101276.91;4960255;28;20798;-74
2022/01/06 00:55:15;;;;;;;4.03;0.90;;;;;;;4.13;100.00;101286.47;4960908;28;20491;-74
2022/01/06 00:57:41;;;;;;;2.70;0.90;;;;;;;3.18;100.00;101166.25;4969024;28;20189;-74
2022/01/06 01:00:07;;;;;;;5.10;1.30;;;;;;;3.47;100.00;101223.69;4967744;28;22361;-73
2022/01/06 01:02:32;;;;;;;4.57;1.60;;;;;;;3.25;100.00;101246.06;4964716;28;20295;-74
2022/01/06 01:04:58;;;;;;;2.40;1.23;;;;;;;3.67;100.00;101296.09;4949971;28;20992;-74
2022/01/06 01:07:23;;;;;;;4.80;1.20;;;;;;;3.43;100.00;101293.91;4954817;28;20299;-74
2022/01/06 01:09:48;;;;;;;4.73;1.13;;;;;;;3.08;100.00;101280.25;4972919;28;20200;-73
2022/01/06 01:12:14;;;;;;;5.63;1.60;;;;;;;2.93;100.00;101226.00;4969517;28;26670;-73
2022/01/06 01:14:52;;;;;;;9.93;1.50;;;;;;;2.70;100.00;101204.22;4974683;28;20605;-73
2022/01/06 01:17:18;;;;;;;7.30;1.13;;;;;;;2.91;100.00;101287.06;4955943;28;20733;-73
2022/01/06 01:19:43;;;;;;;2.73;0.90;;;;;;;2.85;100.00;101234.63;4957895;28;20444;-74
2022/01/06 01:22:08;;;;;;;4.03;1.20;;;;;;;2.71;100.00;101315.34;4977426;28;20197;-73
2022/01/06 01:24:34;;;;;;;6.30;1.10;;;;;;;2.72;100.00;101281.75;4959766;28;20182;-73
2022/01/06 01:26:59;;;;;;;2.13;1.00;;;;;;;2.24;100.00;101221.56;4975082;28;20201;-74
2022/01/06 01:29:27;;;;;;;1.80;1.10;;;;;;;2.08;100.00;101277.63;4977402;28;20193;-73
2022/01/06 01:31:55;;;;;;;6.30;1.57;;;;;;;2.35;100.00;101315.94;4977325;28;20349;-73
2022/01/06 01:34:27;;;;;;;4.33;1.10;;;;;;;1.67;100.00;101162.19;4978534;28;20461;-73
2022/01/06 01:36:57;;;;;;;5.00;1.10;;;;;;;2.08;100.00;101322.63;4977956;28;20501;-74
2022/01/06 01:39:24;;;;;;;4.00;1.90;;;;;;;1.67;100.00;101267.97;4975297;28;20529;-74
2022/01/06 01:41:50;;;;;;;5.67;1.83;;;;;;;2.44;100.00;101254.22;4971923;28;21283;-74
2022/01/06 01:44:19;;;;;;;6.47;2.23;;;;;;;2.99;100.00;101325.31;4978471;28;20448;-74
2022/01/06 01:46:58;;;;;;;9.50;2.20;;;;;;;2.79;100.00;101335.03;4965713;28;20508;-73
2022/01/06 01:51:50;;;;;;;5.03;1.87;;;;;;;2.64;100.00;101339.88;4981000;28;20455;-73
2022/01/06 01:54:16;;;;;;;4.93;1.30;;;;;;;1.67;100.00;101234.44;4980783;28;20214;-74
2022/01/06 01:56:43;;;;;;;6.07;1.47;;;;;;;2.92;100.00;101312.59;4975754;28;20557;-73
2022/01/06 01:59:09;;;;;;;5.10;1.40;;;;;;;2.91;100.00;101294.19;4978127;28;20437;-75
2022/01/06 02:01:35;;;;;;;10.53;1.90;;;;;;;2.75;100.00;101284.13;4977162;28;20454;-73
2022/01/06 02:04:01;;;;;;;7.77;1.70;;;;;;;2.53;100.00;101247.28;4971050;28;21301;-74
2022/01/06 02:06:27;;;;;;;11.00;1.70;;;;;;;3.71;100.00;101356.72;4970048;28;20217;-74
2022/01/06 02:08:54;;;;;;;4.80;1.27;;;;;;;3.71;100.00;101364.66;4977556;28;20465;-70
2022/01/06 02:11:20;;;;;;;6.47;1.23;;;;;;;4.10;100.00;101424.81;4975446;28;20495;-72
2022/01/06 02:13:49;;;;;;;4.60;1.20;;;;;;;4.12;100.00;101420.22;4976701;28;20480;-72
2022/01/06 02:16:19;;;;;;;3.30;0.83;;;;;;;3.97;100.00;101403.91;4970716;28;20471;-72
2022/01/06 02:18:44;;;;;;;2.30;0.90;;;;;;;2.55;100.00;101150.84;4957234;28;20476;-73
2022/01/06 02:21:10;;;;;;;3.77;1.10;;;;;;;3.14;100.00;101290.28;4974705;28;20548;-72
2022/01/06 02:23:35;;;;;;;1.67;0.90;;;;;;;3.01;100.00;101304.78;4972526;28;20195;-73
2022/01/06 02:26:00;;;;;;;5.00;1.23;;;;;;;3.14;100.00;101358.38;4971303;28;20221;-73
2022/01/06 02:28:26;;;;;;;6.50;1.20;;;;;;;3.27;100.00;101392.56;4972618;28;20678;-73
2022/01/06 02:30:52;;;;;;;5.73;1.30;;;;;;;3.09;100.00;101289.03;4971955;28;20228;-73
2022/01/06 02:33:21;;;;;;;2.27;0.90;;;;;;;1.79;100.00;101079.13;4975209;28;20849;-74
2022/01/06 02:35:48;;;;;;;2.93;0.97;;;;;;;3.43;100.00;101394.69;4973582;28;20468;-73
2022/01/06 02:38:14;;;;;;;2.70;1.00;;;;;;;3.31;100.00;101393.97;4970973;28;20537;-73
2022/01/06 02:40:39;;;;;;;2.57;1.10;;;;;;;2.69;100.00;101350.88;4974528;28;20449;-73
2022/01/06 02:43:07;;;;;;;2.80;1.17;;;;;;;3.07;100.00;101408.44;4966018;28;20564;-73
2022/01/06 02:45:33;;;;;;;5.73;1.80;;;;;;;2.93;100.00;101422.09;4940569;28;20275;-73
2022/01/06 02:48:00;;;;;;;7.13;1.37;;;;;;;2.42;100.00;101302.00;4965661;28;20441;-73
2022/01/06 02:50:27;;;;;;;4.57;1.40;;;;;;;3.05;100.00;101433.41;4975999;28;20495;-74
2022/01/06 02:52:52;;;;;;;4.00;1.10;;;;;;;2.11;100.00;101313.59;4974723;28;20459;-73
2022/01/06 02:55:18;;;;;;;3.53;1.23;;;;;;;2.92;100.00;101423.03;4952703;28;20465;-76
2022/01/06 02:57:44;;;;;;;6.53;1.23;;;;;;;2.80;100.00;101397.63;4968122;28;20190;-76
2022/01/06 03:00:15;;;;;;;4.90;0.93;;;;;;;2.66;100.00;101372.34;4972361;28;20197;-76
2022/01/06 03:02:43;;;;;;;4.57;0.93;;;;;;;2.50;100.00;101386.09;4959829;28;20436;-75
2022/01/06 03:05:11;;;;;;;4.33;0.93;;;;;;;3.04;100.00;101444.97;4958970;28;20996;-74
2022/01/06 03:07:37;;;;;;;4.00;1.20;;;;;;;2.90;100.00;101441.72;4974121;28;20447;-74
2022/01/06 03:10:06;;;;;;;3.97;1.10;;;;;;;2.51;100.00;101381.63;4973394;28;20887;-74
2022/01/06 03:12:39;;;;;;;4.97;0.97;;;;;;;2.14;100.00;101337.13;4967394;28;20949;-74
2022/01/06 03:15:06;;;;;;;4.20;1.17;;;;;;;2.10;100.00;101307.47;4975438;28;22225;-74
2022/01/06 03:17:32;;;;;;;2.10;0.90;;;;;;;2.56;100.00;101387.38;4961724;28;20464;-74
2022/01/06 03:19:57;;;;;;;3.20;1.30;;;;;;;2.94;100.00;101444.94;4969363;28;20437;-74
2022/01/06 03:22:22;;;;;;;6.80;1.47;;;;;;;3.08;100.00;101449.03;4973404;28;20650;-73
2022/01/06 03:24:48;;;;;;;2.90;1.40;;;;;;;2.64;100.00;101392.84;4976824;28;20209;-73
2022/01/06 03:27:13;;;;;;;4.07;0.87;;;;;;;3.14;100.00;101454.63;4965810;28;20705;-73
2022/01/06 03:29:39;;;;;;;6.00;1.10;;;;;;;2.29;100.00;101325.25;4975391;28;20190;-74
2022/01/06 03:32:04;;;;;;;2.50;0.97;;;;;;;2.75;100.00;101399.84;4972925;28;20666;-74
2022/01/06 03:34:30;;;;;;;2.60;1.40;;;;;;;3.14;100.00;101459.94;4965966;28;20352;-73
2022/01/06 03:36:56;;;;;;;4.70;1.27;;;;;;;2.03;100.00;101303.69;4947936;28;20196;-73
2022/01/06 03:39:22;;;;;;;3.03;1.10;;;;;;;2.43;100.00;101392.88;4975962;28;20201;-74
2022/01/06 03:41:47;;;;;;;2.80;1.20;;;;;;;2.54;100.00;101413.97;4971590;28;20445;-74
2022/01/06 03:44:13;;;;;;;4.90;1.17;;;;;;;2.77;100.00;101464.97;4971992;28;20659;-74
2022/01/06 03:46:38;;;;;;;10.23;1.30;;;;;;;2.88;100.00;101469.34;4972043;28;20275;-74
2022/01/06 03:49:03;;;;;;;3.93;1.00;;;;;;;2.05;100.00;101349.34;4974919;28;20194;-74
2022/01/06 03:51:29;;;;;;;2.70;1.00;;;;;;;2.67;100.00;101416.41;4976496;28;20276;-74
2022/01/06 03:53:54;;;;;;;2.93;1.10;;;;;;;2.64;100.00;101440.53;4976404;28;20540;-74
2022/01/06 03:56:20;;;;;;;1.47;1.00;;;;;;;1.25;100.00;101210.69;4952490;28;20462;-74
2022/01/06 03:58:45;;;;;;;2.83;1.03;;;;;;;2.59;100.00;101440.91;4965269;28;20196;-74
2022/01/06 04:01:11;;;;;;;4.00;1.13;;;;;;;2.66;100.00;101404.97;4973451;28;20193;-74
2022/01/06 04:03:37;;;;;;;4.40;1.10;;;;;;;2.80;100.00;101413.53;4947824;28;20347;-73
2022/01/06 04:06:03;;;;;;;3.73;0.97;;;;;;;2.53;100.00;101393.75;4971298;28;20961;-74
2022/01/06 04:08:28;;;;;;;3.33;1.10;;;;;;;2.33;100.00;101350.47;4972099;28;20221;-74
2022/01/06 04:10:54;;;;;;;3.40;1.10;;;;;;;1.96;100.00;101316.56;4972832;28;21035;-74
2022/01/06 04:13:19;;;;;;;5.63;1.00;;;;;;;2.65;100.00;101408.59;4966565;28;20213;-73
2022/01/06 04:15:45;;;;;;;3.77;1.23;;;;;;;2.35;100.00;101377.66;4970043;28;20225;-74
2022/01/06 04:18:11;;;;;;;1.23;0.90;;;;;;;2.64;100.00;101392.84;4958551;28;20193;-73
2022/01/06 04:20:36;;;;;;;3.77;1.20;;;;;;;2.59;100.00;101387.09;4972952;28;20451;-74
2022/01/06 04:23:02;;;;;;;2.77;1.23;;;;;;;2.79;100.00;101395.97;4947704;28;22011;-74
2022/01/06 04:25:27;;;;;;;2.97;1.60;;;;;;;2.16;100.00;101351.09;4970296;28;20213;-74
2022/01/06 04:27:52;;;;;;;4.77;1.40;;;;;;;2.64;100.00;101470.50;4969528;28;20594;-74
2022/01/06 04:30:18;;;;;;;13.33;1.43;;;;;;;1.87;100.00;101320.00;4966024;28;20198;-73
2022/01/06 04:32:43;;;;;;;6.43;1.70;;;;;;;1.42;100.00;101274.47;4962386;28;20186;-74
2022/01/06 04:35:09;;;;;;;4.03;1.30;;;;;;;1.64;100.00;101432.19;4972193;28;20218;-74
2022/01/06 04:37:34;;;;;;;2.97;1.07;;;;;;;2.46;100.00;101533.81;4968407;28;20181;-74
2022/01/06 04:40:00;;;;;;;4.53;1.20;;;;;;;1.76;100.00;101418.78;4970259;28;20213;-74
2022/01/06 04:42:26;;;;;;;10.80;1.50;;;;;;;1.77;100.00;101517.50;4969046;28;20186;-74
2022/01/06 04:44:51;;;;;;;5.17;1.20;;;;;;;1.50;100.00;101489.66;4971251;28;20794;-76
2022/01/06 04:47:17;;;;;;;5.23;1.10;;;;;;;0.02;100.00;101254.13;4952326;28;20856;-74
2022/01/06 04:49:42;;;;;;;6.83;1.13;;;;;;;1.98;100.00;101528.97;4970587;28;20189;-74
2022/01/06 04:52:07;;;;;;;3.70;1.07;;;;;;;1.62;100.00;101426.16;4969610;28;20185;-74
2022/01/06 04:54:33;;;;;;;9.53;1.77;;;;;;;2.16;100.00;101480.78;4969118;28;20732;-74
2022/01/06 04:56:58;;;;;;;4.77;1.80;;;;;;;2.10;100.00;101453.00;4969442;28;20574;-74
2022/01/06 04:59:24;;;;;;;10.90;2.17;;;;;;;2.83;100.00;101533.31;4971849;28;20608;-74
2022/01/06 05:01:49;;;;;;;7.40;1.80;;;;;;;1.50;100.00;101338.97;4966974;28;20391;-74
2022/01/06 05:04:15;;;;;;;7.93;2.10;;;;;;;3.11;100.00;101566.25;4971334;28;20235;-74
2022/01/06 05:06:40;;;;;;;7.83;1.87;;;;;;;3.26;100.00;101561.41;4954629;28;20213;-74
2022/01/06 05:09:06;;;;;;;9.77;1.50;;;;;;;3.30;100.00;101535.50;4966900;28;20798;-74
2022/01/06 05:11:31;;;;;;;10.33;2.30;;;;;;;3.58;100.00;101555.09;4964985;28;20193;-74
2022/01/06 05:13:57;;;;;;;7.40;1.43;;;;;;;3.55;100.00;101563.34;4971142;28;20232;-74
2022/01/06 05:16:22;;;;;;;7.47;1.53;;;;;;;3.41;100.00;101567.19;4972891;28;20210;-74
2022/01/06 05:18:47;;;;;;;8.10;2.30;;;;;;;3.42;100.00;101568.06;4960326;28;20654;-74
2022/01/06 05:21:13;;;;;;;12.90;2.07;;;;;;;3.57;100.00;101572.84;4970662;28;20260;-73
2022/01/06 05:23:40;;;;;;;5.80;1.80;;;;;;;3.50;100.00;101592.06;4962416;28;20174;-73
2022/01/06 05:26:07;;;;;;;5.30;2.20;;;;;;;3.49;100.00;101535.53;4968051;28;20210;-74
2022/01/06 05:28:32;;;;;;;7.93;2.10;;;;;;;2.89;100.00;101497.50;4973113;28;20477;-74
2022/01/06 05:30:57;;;;;;;11.93;2.83;;;;;;;2.06;100.00;101326.41;4972219;28;20507;-73
2022/01/06 05:33:24;;;;;;;7.30;1.60;;;;;;;3.53;100.00;101491.00;4974868;28;20209;-73
2022/01/06 05:35:50;;;;;;;13.33;2.00;;;;;;;4.09;100.00;101522.22;4973763;28;20205;-74
2022/01/06 05:38:16;;;;;;;7.37;1.70;;;;;;;3.53;100.00;101459.19;4946907;28;20468;-74
2022/01/06 05:40:42;;;;;;;9.87;1.80;;;;;;;4.47;100.00;101571.00;4970916;28;20483;-74
2022/01/06 05:43:07;;;;;;;5.37;1.53;;;;;;;4.36;100.00;101573.78;4967680;28;20841;-73
2022/01/06 05:45:32;;;;;;;4.40;1.67;;;;;;;4.39;100.00;101573.50;4958408;28;20210;-74
2022/01/06 05:47:58;;;;;;;9.10;3.33;;;;;;;4.26;100.00;101566.66;4949205;28;20324;-74
2022/01/06 05:50:23;;;;;;;7.87;1.80;;;;;;;4.00;100.00;101550.44;4961849;28;20256;-74
2022/01/06 05:52:54;;;;;;;11.30;1.90;;;;;;;3.63;100.00;101505.13;4960808;28;20185;-74
2022/01/06 05:55:19;;;;;;;6.63;2.03;;;;;;;4.24;100.00;101591.69;4973389;28;20297;-74
2022/01/06 05:57:45;;;;;;;7.30;1.90;;;;;;;4.16;100.00;101594.19;4952673;28;20440;-73
2022/01/06 06:00:11;;;;;;;7.23;1.80;;;;;;;3.81;100.00;101527.34;4962560;28;20182;-74
2022/01/06 06:02:36;;;;;;;8.67;1.70;;;;;;;3.79;100.00;101483.34;4971089;28;20688;-74
2022/01/06 06:05:01;;;;;;;6.83;1.50;;;;;;;3.57;100.00;101506.53;4971020;28;20890;-74
2022/01/06 06:07:27;;;;;;;8.93;2.13;;;;;;;3.56;100.00;101511.97;4967823;28;20708;-74
2022/01/06 06:09:52;;;;;;;8.07;2.30;;;;;;;4.00;100.00;101608.00;4966408;28;20190;-74
2022/01/06 06:12:18;;;;;;;9.43;1.63;;;;;;;3.89;100.00;101624.03;4976688;28;20646;-74
2022/01/06 06:14:43;;;;;;;7.63;2.00;;;;;;;3.53;100.00;101579.41;4955799;28;20306;-74
2022/01/06 06:17:09;;;;;;;6.03;1.13;;;;;;;3.20;100.00;101564.59;4954527;28;20205;-74
2022/01/06 06:19:34;;;;;;;8.43;2.00;;;;;;;3.59;100.00;101617.81;4978567;28;20631;-74
2022/01/06 06:22:00;;;;;;;6.57;1.70;;;;;;;3.16;100.00;101574.63;4978247;28;20185;-74
2022/01/06 06:24:25;;;;;;;3.47;1.40;;;;;;;2.37;100.00;101470.19;4975906;28;20231;-74
2022/01/06 06:26:52;;;;;;;6.27;1.47;;;;;;;2.55;100.00;101486.34;4979574;28;20198;-74
2022/01/06 06:29:18;;;;;;;4.73;1.30;;;;;;;2.72;100.00;101521.00;4982312;28;20663;-75
2022/01/06 06:31:44;;;;;;;3.77;1.70;;;;;;;3.17;100.00;101608.13;4973064;28;20898;-75
2022/01/06 06:34:10;;;;;;;4.60;1.40;;;;;;;3.20;100.00;101609.69;4978456;28;20468;-75
2022/01/06 06:36:36;;;;;;;3.90;1.33;;;;;;;2.50;100.00;101465.53;4978846;28;20195;-74
2022/01/06 06:39:02;;;;;;;6.20;1.87;;;;;;;2.92;100.00;101569.66;4969695;28;20495;-74
2022/01/06 06:41:27;;;;;;;6.00;2.50;;;;;;;2.59;100.00;101459.44;4975893;28;20182;-75
2022/01/06 06:43:52;;;;;;;6.37;1.70;;;;;;;3.22;100.00;101631.59;4979837;28;20222;-75
2022/01/06 06:46:18;;;;;;;5.07;1.40;;;;;;;2.03;100.00;101449.22;4972460;28;20928;-75
2022/01/06 06:48:43;;;;;;;6.07;1.60;;;;;;;3.42;100.00;101656.41;4973189;28;20186;-74
2022/01/06 06:51:09;;;;;;;7.23;1.90;;;;;;;2.47;100.00;101526.69;4976366;28;20275;-73
2022/01/06 06:53:34;;;;;;;5.43;1.43;;;;;;;3.50;100.00;101666.34;4965376;28;20205;-74
2022/01/06 06:56:00;;;;;;;7.77;2.00;;;;;;;3.14;100.00;101631.41;4979502;28;20240;-73
2022/01/06 06:58:25;;;;;;;5.73;2.03;;;;;;;2.60;100.00;101522.03;4968508;28;20212;-74
2022/01/06 07:00:50;;;;;;;6.90;1.83;;;;;;;3.13;100.00;101632.41;4977727;28;20713;-74
2022/01/06 07:03:16;;;;;;;5.43;1.60;;;;;;;3.25;100.00;101657.84;4970512;28;20248;-74
2022/01/06 07:05:42;;;;;;;12.03;2.77;;;;;;;2.73;100.00;101596.00;4959728;28;20308;-74
2022/01/06 07:08:07;;;;;;;10.90;2.60;;;;;;;3.09;100.00;101657.47;4976655;28;20194;-74
2022/01/06 07:10:32;;;;;;;11.40;2.30;;;;;;;2.85;100.00;101624.13;4974375;28;20182;-74
2022/01/06 07:12:58;;;;;;;14.47;2.60;;;;;;;2.82;100.00;101682.66;4972150;28;20186;-74
2022/01/06 07:15:23;;;;;;;11.03;2.10;;;;;;;1.94;100.00;101569.88;4972609;28;20210;-74
2022/01/06 07:17:49;;;;;;;6.47;1.73;;;;;;;2.67;100.00;101679.47;4973052;28;20611;-74
2022/01/06 07:20:14;;;;;;;5.53;2.00;;;;;;;2.64;100.00;101687.69;4975155;28;20603;-74
2022/01/06 07:22:39;;;;;;;10.23;2.20;;;;;;;2.07;100.00;101548.53;4970571;28;20189;-75
2022/01/06 07:25:06;;;;;;;8.60;2.03;;;;;;;2.32;100.00;101624.13;4976723;28;20666;-76
2022/01/06 07:27:31;;;;;;;7.30;2.03;;;;;;;0.92;100.00;101419.50;4977521;28;21127;-76
2022/01/06 07:29:56;;;;;;;9.60;1.70;;;;;;;2.56;100.00;101679.53;4979262;28;20961;-76
2022/01/06 07:32:24;;;;;;;5.00;1.70;;;;;;;2.30;100.00;101654.34;4973104;28;20307;-76
2022/01/06 07:34:49;;;;;;;8.07;1.87;;;;;;;2.26;100.00;101617.53;4975940;28;20213;-77
2022/01/06 07:37:15;;;;;;;4.90;1.67;;;;;;;2.70;100.00;101720.78;4972199;28;20507;-76
2022/01/06 07:39:40;;;;;;;7.00;1.60;;;;;;;2.16;100.00;101619.22;4973796;28;20214;-76
2022/01/06 07:42:06;;;;;;;5.67;1.80;;;;;;;2.12;100.00;101651.38;4975084;28;20242;-76
2022/01/06 07:44:31;;;;;;;7.93;2.30;;;;;;;2.13;100.00;101666.28;4971510;28;20235;-76
2022/01/06 07:46:59;;;;;;;6.20;2.10;;;;;;;2.49;100.00;101741.91;4943745;28;20828;-76
2022/01/06 07:49:24;;;;;;;9.63;2.13;;;;;;;2.21;100.00;101685.03;4969031;28;20182;-76
2022/01/06 07:51:49;;;;;;;7.60;1.93;;;;;;;2.58;100.00;101740.34;4970967;28;20455;-78
2022/01/06 07:54:15;;;;;;;5.13;1.70;;;;;;;2.44;100.00;101704.38;4978795;28;20342;-76
2022/01/06 07:56:40;;;;;;;8.47;1.90;;;;;;;1.92;100.00;101637.94;4976376;28;20213;-77
2022/01/06 07:59:08;;;;;;;11.67;2.07;;;;;;;1.98;100.00;101678.94;4964784;28;20566;-77
2022/01/06 08:01:33;;;;;;;6.03;2.13;;;;;;;1.57;100.00;101575.47;4968890;28;21187;-76
2022/01/06 08:03:58;;;;;;;5.90;2.43;;;;;;;1.70;100.00;101614.16;4975685;28;20437;-76
2022/01/06 08:06:24;;;;;;;5.23;2.00;;;;;;;1.83;100.00;101635.22;4972130;28;20660;-77
2022/01/06 08:08:49;;;;;;;7.23;2.00;;;;;;;2.06;100.00;101681.84;4976398;28;20240;-76
2022/01/06 08:11:15;;;;;;;11.83;2.17;;;;;;;2.40;100.00;101758.53;4976384;28;20267;-76
2022/01/06 08:13:41;;;;;;;4.73;2.07;;;;;;;1.67;100.00;101691.94;4966479;28;20209;-76
2022/01/06 08:16:06;;;;;;;8.83;2.53;;;;;;;1.77;100.00;101755.56;4971588;28;20686;-76
2022/01/06 08:18:32;;;;;;;7.97;2.60;;;;;;;1.48;100.00;101726.91;4980684;28;20205;-77
2022/01/06 08:20:58;;;;;;;10.60;2.70;;;;;;;2.36;100.00;101772.97;4975243;28;20268;-77
2022/01/06 08:23:24;;;;;;;11.43;2.40;;;;;;;2.93;100.00;101779.84;4977238;28;20466;-76
2022/01/06 08:25:49;;;;;;;13.90;2.60;;;;;;;3.14;100.00;101774.56;4977567;28;20923;-76
2022/01/06 08:28:15;;;;;;;10.00;2.60;;;;;;;2.72;100.00;101689.72;4980170;28;20196;-76
2022/01/06 08:30:41;;;;;;;7.97;2.50;;;;;;;3.49;100.00;101779.56;4968305;28;20625;-76
2022/01/06 08:33:07;;;;;;;8.70;2.10;;;;;;;2.60;100.00;101650.97;4969603;28;20179;-76
2022/01/06 08:35:32;;;;;;;7.70;2.33;;;;;;;3.33;100.00;101745.56;4974858;28;20833;-76
2022/01/06 08:37:58;;;;;;;8.80;2.23;;;;;;;3.46;100.00;101760.41;4959033;28;20685;-76
2022/01/06 08:40:24;;;;;;;7.80;2.20;;;;;;;3.40;100.00;101777.69;4972935;28;20603;-77
2022/01/06 08:42:50;;;;;;;9.30;2.90;;;;;;;3.15;100.00;101755.03;4956815;28;20548;-77
2022/01/06 08:45:19;;;;;;;12.33;2.53;;;;;;;3.06;100.00;101726.63;4953974;28;20475;-75
2022/01/06 08:47:45;;;;;;;7.23;2.23;;;;;;;3.32;100.00;101749.16;4968880;28;20275;-75
2022/01/06 08:50:11;;;;;;;5.20;2.33;;;;;;;3.10;100.00;101720.97;4969178;28;20437;-74
2022/01/06 08:52:38;;;;;;;10.00;2.30;;;;;;;3.27;100.00;101785.84;4972911;28;20989;-75
2022/01/06 08:55:06;;;;;;;11.60;2.60;;;;;;;2.99;100.00;101715.72;4976571;28;20522;-74
2022/01/06 08:57:31;;;;;;;9.53;2.40;;;;;;;3.49;100.00;101794.63;4971150;28;20445;-74
2022/01/06 08:59:58;;;;;;;14.10;2.87;;;;;;;3.34;100.00;101799.44;4975945;28;20452;-74
2022/01/06 09:02:23;;;;;;;7.73;1.93;;;;;;;3.41;100.00;101774.06;4975958;28;20236;-74
2022/01/06 09:04:50;;;;;;;7.23;2.23;;;;;;;3.45;100.00;101782.63;4976686;28;20827;-75
2022/01/06 09:07:15;;;;;;;9.07;2.87;;;;;;;2.80;100.00;101711.09;4973451;28;20931;-74
2022/01/06 09:09:40;;;;;;;13.73;2.67;;;;;;;3.22;100.00;101779.25;4972875;28;20441;-74
2022/01/06 09:12:16;;;;;;;8.83;2.77;;;;;;;2.57;100.00;101640.63;4973388;28;20197;-74
2022/01/06 09:14:43;;;;;;;12.20;3.20;;;;;;;2.80;100.00;101647.50;4974343;28;20210;-74
2022/01/06 09:17:08;;;;;;;10.03;3.20;;;;;;;3.72;100.00;101782.09;4958956;28;20437;-74
2022/01/06 09:19:34;;;;;;;12.70;3.00;;;;;;;2.84;100.00;101626.91;4965291;28;20858;-74
2022/01/06 09:21:59;;;;;;;12.43;3.10;;;;;;;2.93;100.00;101628.78;4971281;28;20194;-74
2022/01/06 09:24:25;;;;;;;8.87;2.60;;;;;;;3.08;100.00;101653.16;4971026;28;20193;-74
2022/01/06 09:26:50;;;;;;;7.80;3.03;;;;;;;3.35;100.00;101647.28;4969925;28;20205;-74
2022/01/06 09:29:16;;;;;;;8.90;2.97;;;;;;;4.05;100.00;101776.53;4957339;28;20236;-74
2022/01/06 09:31:42;;;;;;;10.60;2.90;;;;;;;4.51;100.00;101803.50;4973394;28;20257;-74
2022/01/06 09:34:09;;;;;;;10.87;3.17;;;;;;;4.49;100.00;101798.34;4975306;28;20244;-75
2022/01/06 09:36:38;;;;;;;18.00;3.93;;;;;;;3.74;100.00;101709.34;4973040;28;21170;-74
2022/01/06 09:39:05;;;;;;;12.27;3.83;;;;;;;4.18;100.00;101805.50;4975637;28;20445;-74
2022/01/06 09:41:30;;;;;;;13.03;3.90;;;;;;;4.16;100.00;101777.41;4974982;28;20856;-74
2022/01/06 09:43:57;;;;;;;10.60;3.40;;;;;;;4.09;100.00;101782.41;4975538;28;20572;-73
2022/01/06 09:46:24;;;;;;;12.00;3.73;;;;;;;4.36;100.00;101802.22;4971498;28;20733;-73
2022/01/06 09:48:50;;;;;;;16.93;2.83;;;;;;;3.78;100.00;101686.03;4974053;28;20472;-73
2022/01/06 09:51:17;;;;;;;12.97;3.07;;;;;;;3.93;100.00;101678.53;4976316;28;21436;-73
2022/01/06 09:53:43;;;;;;;14.80;3.43;;;;;;;3.82;100.00;101698.06;4976345;28;20497;-74
2022/01/06 09:56:10;;;;;;;11.63;3.10;;;;;;;4.64;100.00;101811.25;4969639;28;20483;-74
2022/01/06 09:58:36;;;;;;;14.60;3.67;;;;;;;3.72;100.00;101657.38;4965934;28;20190;-74
2022/01/06 10:01:01;;;;;;;19.37;3.50;;;;;;;4.67;100.00;101793.22;4972488;28;20963;-74
2022/01/06 10:03:37;;;;;;;22.40;3.50;;;;;;;4.33;100.00;101770.63;4970523;28;20934;-74
2022/01/06 10:06:17;;;;;;;10.60;2.67;;;;;;;4.18;100.00;101739.13;4954935;28;20621;-74
2022/01/06 10:09:04;;;;;;;9.80;2.87;;;;;;;4.77;100.00;101830.44;4968156;28;20424;-74
2022/01/06 10:11:34;;;;;;;13.60;3.27;;;;;;;4.73;100.00;101823.72;4972449;28;20428;-73
2022/01/06 10:14:10;;;;;;;21.40;2.93;;;;;;;4.51;100.00;101775.16;4976208;28;21008;-74
2022/01/06 10:16:44;;;;;;;7.07;3.00;;;;;;;4.49;100.00;101771.78;4974142;28;20452;-74
2022/01/06 10:19:11;;;;;;;16.67;4.33;;;;;;;4.60;100.00;101746.91;4972808;28;20421;-74
2022/01/06 10:21:42;;;;;;;12.63;3.83;;;;;;;4.48;100.00;101746.19;4975182;28;20812;-74
2022/01/06 10:24:07;;;;;;;14.13;3.63;;;;;;;5.13;100.00;101823.66;4977760;28;20495;-74
2022/01/06 10:26:33;;;;;;;15.47;3.70;;;;;;;5.33;100.00;101823.66;4974196;28;20889;-73
2022/01/06 10:28:59;;;;;;;12.90;3.80;;;;;;;5.19;100.00;101814.28;4970224;28;20620;-74
2022/01/06 10:31:29;;;;;;;16.33;3.63;;;;;;;5.28;100.00;101816.09;4977961;28;20885;-74
2022/01/06 10:33:56;;;;;;;10.80;2.87;;;;;;;5.04;100.00;101750.03;4979868;28;20462;-74
2022/01/06 10:36:32;;;;;;;14.83;3.20;;;;;;;5.33;100.00;101811.19;4977347;28;20539;-73
2022/01/06 10:38:59;;;;;;;11.60;2.73;;;;;;;4.96;100.00;101764.00;4957469;28;20425;-74
2022/01/06 10:41:27;;;;;;;17.90;3.30;;;;;;;5.44;100.00;101815.53;4974533;28;20496;-74
2022/01/06 10:43:57;;;;;;;11.23;3.10;;;;;;;4.47;100.00;101658.66;4976858;28;20429;-74
2022/01/06 10:46:34;;;;;;;13.67;3.93;;;;;;;5.49;100.00;101812.44;4975917;28;20468;-74
2022/01/06 10:49:04;;;;;;;11.13;3.20;;;;;;;5.48;100.00;101798.28;4973654;28;20784;-74
2022/01/06 10:51:38;;;;;;;16.03;3.27;;;;;;;5.20;100.00;101713.03;4971653;28;20429;-74
2022/01/06 10:54:09;;;;;;;16.80;3.63;;;;;;;5.64;100.00;101805.69;4969149;28;20519;-74
2022/01/06 10:56:34;;;;;;;10.30;2.83;;;;;;;5.40;100.00;101803.47;4978108;28;20463;-74
2022/01/06 10:59:00;;;;;;;11.73;3.63;;;;;;;5.19;100.00;101737.97;4977426;28;20444;-74
2022/01/06 11:01:26;;;;;;;14.40;3.30;;;;;;;5.87;100.00;101800.84;4979978;28;20269;-74
2022/01/06 11:03:51;;;;;;;12.93;3.70;;;;;;;5.74;100.00;101795.03;4973833;28;20185;-76
2022/01/06 11:06:17;;;;;;;19.10;3.73;;;;;;;5.81;100.00;101799.63;4975760;28;20460;-74
2022/01/06 11:08:43;;;;;;;15.63;3.77;;;;;;;5.57;100.00;101767.31;4974484;28;20708;-74
2022/01/06 11:13:44;;;;;;;15.00;3.43;;;;;;;5.24;100.00;101800.56;4969179;28;20460;-75
2022/01/06 11:16:12;;;;;;;16.27;3.37;;;;;;;5.63;100.00;101772.91;4975200;28;20461;-75
2022/01/06 11:18:42;;;;;;;11.33;3.27;;;;;;;6.07;100.00;101783.03;4975247;28;20433;-75
2022/01/06 11:21:13;;;;;;;8.00;3.00;;;;;;;6.06;100.00;101781.38;4974238;28;20967;-75
2022/01/06 11:23:39;;;;;;;8.13;2.87;;;;;;;5.91;100.00;101788.97;4975801;28;20491;-74
2022/01/06 11:26:09;;;;;;;12.03;3.07;;;;;;;5.47;100.00;101719.44;4977766;28;20492;-75
2022/01/06 11:28:35;;;;;;;16.60;3.47;;;;;;;6.01;100.00;101779.13;4974202;28;20445;-75
2022/01/06 11:31:21;;;;;;;15.43;3.70;;;;;;;6.18;100.00;101795.34;4975071;28;20520;-75